sensor_id;sensor_type;location;lat;lon;timestamp;temperature;humidity
21823;DHT22;11074;48.596;9.238;2023-05-07T00:01:50;15.70;99.90
21823;DHT22;11074;48.596;9.238;2023-05-07T00:04:16;15.60;99.90
21823;DHT22;11074;48.596;9.238;2023-05-07T00:06:41;15.70;99.90
21823;DHT22;11074;48.596;9.238;2023-05-07T00:09:07;15.60;99.90
21823;DHT22;11074;48.596;9.238;2023-05-07T00:11:33;15.60;99.90
21823;DHT22;11074;48.596;9.238;2023-05-07T00:13:59;15.50;99.90
21823;DHT22;11074;48.596;9.238;2023-05-07T00:16:25;15.50;99.90
21823;DHT22;11074;48.596;9.238;2023-05-07T00:18:50;15.50;99.90
21823;DHT22;11074;48.596;9.238;2023-05-07T00:21:18;15.40;99.90
21823;DHT22;11074;48.596;9.238;2023-05-07T00:23:43;15.40;99.90
21823;DHT22;11074;48.596;9.238;2023-05-07T00:26:09;15.40;99.90
21823;DHT22;11074;48.596;9.238;2023-05-07T00:28:35;15.40;99.90
21823;DHT22;11074;48.596;9.238;2023-05-07T00:31:01;15.40;99.90
21823;DHT22;11074;48.596;9.238;2023-05-07T00:33:26;15.40;99.90
21823;DHT22;11074;48.596;9.238;2023-05-07T00:35:52;15.40;99.90
21823;DHT22;11074;48.596;9.238;2023-05-07T00:38:19;15.40;99.90
21823;DHT22;11074;48.596;9.238;2023-05-07T00:40:45;15.40;99.90
21823;DHT22;11074;48.596;9.238;2023-05-07T00:43:11;15.30;99.90
21823;DHT22;11074;48.596;9.238;2023-05-07T00:45:38;15.30;99.90
21823;DHT22;11074;48.596;9.238;2023-05-07T00:48:04;15.30;99.90
21823;DHT22;11074;48.596;9.238;2023-05-07T00:50:31;15.30;99.90
21823;DHT22;11074;48.596;9.238;2023-05-07T00:52:58;15.30;99.90
21823;DHT22;11074;48.596;9.238;2023-05-07T00:55:25;15.30;99.90
21823;DHT22;11074;48.596;9.238;2023-05-07T00:57:51;15.30;99.90
21823;DHT22;11074;48.596;9.238;2023-05-07T01:00:17;15.30;99.90
21823;DHT22;11074;48.596;9.238;2023-05-07T01:02:44;15.30;99.90
21823;DHT22;11074;48.596;9.238;2023-05-07T01:05:11;15.30;99.90
21823;DHT22;11074;48.596;9.238;2023-05-07T01:07:42;15.20;99.90
21823;DHT22;11074;48.596;9.238;2023-05-07T01:10:09;15.20;99.90
21823;DHT22;11074;48.596;9.238;2023-05-07T01:12:37;15.10;99.90
21823;DHT22;11074;48.596;9.238;2023-05-07T01:15:06;15.00;99.90
21823;DHT22;11074;48.596;9.238;2023-05-07T01:17:38;15.00;99.90
21823;DHT22;11074;48.596;9.238;2023-05-07T01:20:06;15.00;99.90
21823;DHT22;11074;48.596;9.238;2023-05-07T01:22:34;15.00;99.90
21823;DHT22;11074;48.596;9.238;2023-05-07T01:25:03;15.00;99.90
21823;DHT22;11074;48.596;9.238;2023-05-07T01:27:35;14.90;99.90
21823;DHT22;11074;48.596;9.238;2023-05-07T01:30:03;14.90;99.90
21823;DHT22;11074;48.596;9.238;2023-05-07T01:32:40;14.90;99.90
21823;DHT22;11074;48.596;9.238;2023-05-07T01:35:11;14.90;99.90
21823;DHT22;11074;48.596;9.238;2023-05-07T01:37:41;15.00;99.90
21823;DHT22;11074;48.596;9.238;2023-05-07T01:40:08;14.90;99.90
21823;DHT22;11074;48.596;9.238;2023-05-07T01:42:34;14.90;99.90
21823;DHT22;11074;48.596;9.238;2023-05-07T01:45:01;14.90;99.90
21823;DHT22;11074;48.596;9.238;2023-05-07T01:47:26;14.90;99.90
21823;DHT22;11074;48.596;9.238;2023-05-07T01:49:53;14.80;99.90
21823;DHT22;11074;48.596;9.238;2023-05-07T01:52:19;14.70;99.90
21823;DHT22;11074;48.596;9.238;2023-05-07T01:54:45;14.70;99.90
21823;DHT22;11074;48.596;9.238;2023-05-07T01:57:10;14.70;99.90
21823;DHT22;11074;48.596;9.238;2023-05-07T01:59:36;14.60;99.90
21823;DHT22;11074;48.596;9.238;2023-05-07T02:02:02;14.60;99.90
21823;DHT22;11074;48.596;9.238;2023-05-07T02:04:27;14.60;99.90
21823;DHT22;11074;48.596;9.238;2023-05-07T02:06:53;14.50;99.90
21823;DHT22;11074;48.596;9.238;2023-05-07T02:09:19;14.60;99.90
21823;DHT22;11074;48.596;9.238;2023-05-07T02:11:45;14.60;99.90
21823;DHT22;11074;48.596;9.238;2023-05-07T02:14:11;14.60;99.90
21823;DHT22;11074;48.596;9.238;2023-05-07T02:16:36;14.70;99.90
21823;DHT22;11074;48.596;9.238;2023-05-07T02:19:02;14.70;99.90
21823;DHT22;11074;48.596;9.238;2023-05-07T02:21:27;14.60;99.90
21823;DHT22;11074;48.596;9.238;2023-05-07T02:23:53;14.60;99.90
21823;DHT22;11074;48.596;9.238;2023-05-07T02:26:19;14.60;99.90
21823;DHT22;11074;48.596;9.238;2023-05-07T02:28:46;14.50;99.90
21823;DHT22;11074;48.596;9.238;2023-05-07T02:31:12;14.50;99.90
21823;DHT22;11074;48.596;9.238;2023-05-07T02:33:38;14.50;99.90
21823;DHT22;11074;48.596;9.238;2023-05-07T02:36:08;14.50;99.90
21823;DHT22;11074;48.596;9.238;2023-05-07T02:38:34;14.50;99.90
21823;DHT22;11074;48.596;9.238;2023-05-07T02:41:00;14.50;99.90
21823;DHT22;11074;48.596;9.238;2023-05-07T02:43:26;14.50;99.90
21823;DHT22;11074;48.596;9.238;2023-05-07T02:48:31;14.40;99.90
21823;DHT22;11074;48.596;9.238;2023-05-07T02:50:58;14.40;99.90
21823;DHT22;11074;48.596;9.238;2023-05-07T02:53:24;14.40;99.90
21823;DHT22;11074;48.596;9.238;2023-05-07T02:55:56;14.30;99.90
21823;DHT22;11074;48.596;9.238;2023-05-07T02:58:22;14.30;99.90
21823;DHT22;11074;48.596;9.238;2023-05-07T03:00:48;14.30;99.90
21823;DHT22;11074;48.596;9.238;2023-05-07T03:03:14;14.30;99.90
21823;DHT22;11074;48.596;9.238;2023-05-07T03:05:40;14.30;99.90
21823;DHT22;11074;48.596;9.238;2023-05-07T03:08:08;14.30;99.90
21823;DHT22;11074;48.596;9.238;2023-05-07T03:10:34;14.20;99.90
21823;DHT22;11074;48.596;9.238;2023-05-07T03:13:00;14.20;99.90
21823;DHT22;11074;48.596;9.238;2023-05-07T03:15:27;14.20;99.90
21823;DHT22;11074;48.596;9.238;2023-05-07T03:17:52;14.20;99.90
21823;DHT22;11074;48.596;9.238;2023-05-07T03:20:18;14.20;99.90
21823;DHT22;11074;48.596;9.238;2023-05-07T03:22:44;14.20;99.90
21823;DHT22;11074;48.596;9.238;2023-05-07T03:25:09;14.20;99.90
21823;DHT22;11074;48.596;9.238;2023-05-07T03:27:36;14.20;99.90
21823;DHT22;11074;48.596;9.238;2023-05-07T03:30:01;14.30;99.90
21823;DHT22;11074;48.596;9.238;2023-05-07T03:32:27;14.20;99.90
21823;DHT22;11074;48.596;9.238;2023-05-07T03:34:53;14.20;99.90
21823;DHT22;11074;48.596;9.238;2023-05-07T03:37:19;14.20;99.90
21823;DHT22;11074;48.596;9.238;2023-05-07T03:39:45;14.20;99.90
21823;DHT22;11074;48.596;9.238;2023-05-07T03:42:10;14.10;99.90
21823;DHT22;11074;48.596;9.238;2023-05-07T03:44:36;14.00;99.90
21823;DHT22;11074;48.596;9.238;2023-05-07T03:47:02;13.90;99.90
21823;DHT22;11074;48.596;9.238;2023-05-07T03:49:28;13.90;99.90
21823;DHT22;11074;48.596;9.238;2023-05-07T03:51:54;13.90;99.90
21823;DHT22;11074;48.596;9.238;2023-05-07T03:54:20;13.90;99.90
21823;DHT22;11074;48.596;9.238;2023-05-07T03:56:46;13.90;99.90
21823;DHT22;11074;48.596;9.238;2023-05-07T03:59:15;13.90;99.90
21823;DHT22;11074;48.596;9.238;2023-05-07T04:01:40;13.90;99.90
21823;DHT22;11074;48.596;9.238;2023-05-07T04:04:06;14.00;99.90
21823;DHT22;11074;48.596;9.238;2023-05-07T04:06:32;14.00;99.90
21823;DHT22;11074;48.596;9.238;2023-05-07T04:08:58;14.00;99.90
21823;DHT22;11074;48.596;9.238;2023-05-07T04:11:23;13.90;99.90
21823;DHT22;11074;48.596;9.238;2023-05-07T04:13:50;13.80;99.90
21823;DHT22;11074;48.596;9.238;2023-05-07T04:16:15;13.80;99.90
21823;DHT22;11074;48.596;9.238;2023-05-07T04:18:41;13.80;99.90
21823;DHT22;11074;48.596;9.238;2023-05-07T04:21:17;13.90;99.90
21823;DHT22;11074;48.596;9.238;2023-05-07T04:23:44;13.90;99.90
21823;DHT22;11074;48.596;9.238;2023-05-07T04:26:11;13.90;99.90
21823;DHT22;11074;48.596;9.238;2023-05-07T04:28:38;13.90;99.90
21823;DHT22;11074;48.596;9.238;2023-05-07T04:31:04;13.80;99.90
21823;DHT22;11074;48.596;9.238;2023-05-07T04:33:31;13.80;99.90
21823;DHT22;11074;48.596;9.238;2023-05-07T04:35:57;13.70;99.90
21823;DHT22;11074;48.596;9.238;2023-05-07T04:38:30;13.60;99.90
21823;DHT22;11074;48.596;9.238;2023-05-07T04:40:58;13.60;99.90
21823;DHT22;11074;48.596;9.238;2023-05-07T04:43:28;13.50;99.90
21823;DHT22;11074;48.596;9.238;2023-05-07T04:45:53;13.50;99.90
21823;DHT22;11074;48.596;9.238;2023-05-07T04:48:22;13.40;99.90
21823;DHT22;11074;48.596;9.238;2023-05-07T04:50:51;13.40;99.90
21823;DHT22;11074;48.596;9.238;2023-05-07T04:53:18;13.50;99.90
21823;DHT22;11074;48.596;9.238;2023-05-07T04:55:44;13.50;99.90
21823;DHT22;11074;48.596;9.238;2023-05-07T04:58:11;13.60;99.90
21823;DHT22;11074;48.596;9.238;2023-05-07T05:00:38;13.70;99.90
21823;DHT22;11074;48.596;9.238;2023-05-07T05:03:07;13.70;99.90
21823;DHT22;11074;48.596;9.238;2023-05-07T05:05:33;13.80;99.90
21823;DHT22;11074;48.596;9.238;2023-05-07T05:07:59;13.80;99.90
21823;DHT22;11074;48.596;9.238;2023-05-07T05:10:24;13.90;99.90
21823;DHT22;11074;48.596;9.238;2023-05-07T05:12:51;13.90;99.90
21823;DHT22;11074;48.596;9.238;2023-05-07T05:15:16;14.00;99.90
21823;DHT22;11074;48.596;9.238;2023-05-07T05:17:42;14.00;99.90
21823;DHT22;11074;48.596;9.238;2023-05-07T05:20:08;14.10;99.90
21823;DHT22;11074;48.596;9.238;2023-05-07T05:22:36;14.20;99.90
21823;DHT22;11074;48.596;9.238;2023-05-07T05:25:01;14.20;99.90
21823;DHT22;11074;48.596;9.238;2023-05-07T05:27:27;14.30;99.90
21823;DHT22;11074;48.596;9.238;2023-05-07T05:29:53;14.40;99.90
21823;DHT22;11074;48.596;9.238;2023-05-07T05:32:19;15.00;99.90
21823;DHT22;11074;48.596;9.238;2023-05-07T05:34:45;15.50;99.90
21823;DHT22;11074;48.596;9.238;2023-05-07T05:37:11;15.50;99.90
21823;DHT22;11074;48.596;9.238;2023-05-07T05:39:36;15.50;99.90
21823;DHT22;11074;48.596;9.238;2023-05-07T05:42:02;15.40;99.90
21823;DHT22;11074;48.596;9.238;2023-05-07T05:44:28;15.30;99.90
21823;DHT22;11074;48.596;9.238;2023-05-07T05:46:54;15.20;99.90
21823;DHT22;11074;48.596;9.238;2023-05-07T05:49:23;15.20;99.90
21823;DHT22;11074;48.596;9.238;2023-05-07T05:51:49;15.10;99.90
21823;DHT22;11074;48.596;9.238;2023-05-07T05:54:15;15.10;99.90
21823;DHT22;11074;48.596;9.238;2023-05-07T05:56:41;15.10;99.90
21823;DHT22;11074;48.596;9.238;2023-05-07T05:59:12;15.20;99.90
21823;DHT22;11074;48.596;9.238;2023-05-07T06:01:38;15.20;99.90
21823;DHT22;11074;48.596;9.238;2023-05-07T06:04:04;15.20;99.90
21823;DHT22;11074;48.596;9.238;2023-05-07T06:06:30;15.20;99.90
21823;DHT22;11074;48.596;9.238;2023-05-07T06:08:57;15.30;99.90
21823;DHT22;11074;48.596;9.238;2023-05-07T06:11:23;15.30;99.90
21823;DHT22;11074;48.596;9.238;2023-05-07T06:13:48;15.40;99.90
21823;DHT22;11074;48.596;9.238;2023-05-07T06:16:14;15.40;99.90
21823;DHT22;11074;48.596;9.238;2023-05-07T06:18:40;15.40;99.90
21823;DHT22;11074;48.596;9.238;2023-05-07T06:21:06;15.40;99.90
21823;DHT22;11074;48.596;9.238;2023-05-07T06:23:31;15.50;99.90
21823;DHT22;11074;48.596;9.238;2023-05-07T06:25:57;15.50;99.90
21823;DHT22;11074;48.596;9.238;2023-05-07T06:28:23;15.60;99.90
21823;DHT22;11074;48.596;9.238;2023-05-07T06:30:48;15.60;99.90
21823;DHT22;11074;48.596;9.238;2023-05-07T06:33:15;15.70;99.90
21823;DHT22;11074;48.596;9.238;2023-05-07T06:35:41;15.70;99.90
21823;DHT22;11074;48.596;9.238;2023-05-07T06:38:07;15.80;99.90
21823;DHT22;11074;48.596;9.238;2023-05-07T06:40:32;15.90;99.90
21823;DHT22;11074;48.596;9.238;2023-05-07T06:42:58;15.90;99.90
21823;DHT22;11074;48.596;9.238;2023-05-07T06:45:24;15.90;99.90
21823;DHT22;11074;48.596;9.238;2023-05-07T06:47:50;15.90;99.90
21823;DHT22;11074;48.596;9.238;2023-05-07T06:50:16;16.00;99.90
21823;DHT22;11074;48.596;9.238;2023-05-07T06:52:42;16.00;99.90
21823;DHT22;11074;48.596;9.238;2023-05-07T06:55:08;16.00;99.90
21823;DHT22;11074;48.596;9.238;2023-05-07T06:57:34;16.10;99.90
21823;DHT22;11074;48.596;9.238;2023-05-07T07:00:00;16.10;99.90
21823;DHT22;11074;48.596;9.238;2023-05-07T07:02:26;16.10;99.90
21823;DHT22;11074;48.596;9.238;2023-05-07T07:04:51;16.10;99.90
21823;DHT22;11074;48.596;9.238;2023-05-07T07:07:17;16.10;99.90
21823;DHT22;11074;48.596;9.238;2023-05-07T07:09:43;16.10;99.90
21823;DHT22;11074;48.596;9.238;2023-05-07T07:12:08;16.10;99.90
21823;DHT22;11074;48.596;9.238;2023-05-07T07:14:34;16.10;99.90
21823;DHT22;11074;48.596;9.238;2023-05-07T07:17:00;16.20;99.90
21823;DHT22;11074;48.596;9.238;2023-05-07T07:19:26;16.20;99.90
21823;DHT22;11074;48.596;9.238;2023-05-07T07:21:51;16.30;99.90
21823;DHT22;11074;48.596;9.238;2023-05-07T07:24:17;16.40;99.90
21823;DHT22;11074;48.596;9.238;2023-05-07T07:26:46;16.40;99.90
21823;DHT22;11074;48.596;9.238;2023-05-07T07:29:12;16.50;99.90
21823;DHT22;11074;48.596;9.238;2023-05-07T07:31:38;16.60;99.90
21823;DHT22;11074;48.596;9.238;2023-05-07T07:34:03;16.70;99.90
21823;DHT22;11074;48.596;9.238;2023-05-07T07:36:29;16.80;99.90
21823;DHT22;11074;48.596;9.238;2023-05-07T07:38:55;16.80;99.90
21823;DHT22;11074;48.596;9.238;2023-05-07T07:41:21;17.00;99.90
21823;DHT22;11074;48.596;9.238;2023-05-07T07:43:46;17.10;99.90
21823;DHT22;11074;48.596;9.238;2023-05-07T07:46:12;17.30;99.90
21823;DHT22;11074;48.596;9.238;2023-05-07T07:48:38;17.20;99.90
21823;DHT22;11074;48.596;9.238;2023-05-07T07:51:04;17.30;99.90
21823;DHT22;11074;48.596;9.238;2023-05-07T07:53:30;17.40;99.90
21823;DHT22;11074;48.596;9.238;2023-05-07T07:55:55;17.40;99.90
21823;DHT22;11074;48.596;9.238;2023-05-07T07:58:21;17.50;99.90
21823;DHT22;11074;48.596;9.238;2023-05-07T08:00:47;17.50;99.90
21823;DHT22;11074;48.596;9.238;2023-05-07T08:03:14;17.50;99.90
21823;DHT22;11074;48.596;9.238;2023-05-07T08:05:41;17.50;99.90
21823;DHT22;11074;48.596;9.238;2023-05-07T08:08:08;17.70;99.90
21823;DHT22;11074;48.596;9.238;2023-05-07T08:10:34;17.70;99.90
21823;DHT22;11074;48.596;9.238;2023-05-07T08:13:04;17.70;99.90
21823;DHT22;11074;48.596;9.238;2023-05-07T08:15:30;17.60;99.90
21823;DHT22;11074;48.596;9.238;2023-05-07T08:17:56;17.60;99.90
21823;DHT22;11074;48.596;9.238;2023-05-07T08:20:23;17.70;99.90
21823;DHT22;11074;48.596;9.238;2023-05-07T08:22:49;17.70;99.90
21823;DHT22;11074;48.596;9.238;2023-05-07T08:25:16;17.80;99.90
21823;DHT22;11074;48.596;9.238;2023-05-07T08:27:42;17.90;99.90
21823;DHT22;11074;48.596;9.238;2023-05-07T08:30:08;18.00;99.90
21823;DHT22;11074;48.596;9.238;2023-05-07T08:32:34;18.00;99.90
21823;DHT22;11074;48.596;9.238;2023-05-07T08:35:00;18.10;99.90
21823;DHT22;11074;48.596;9.238;2023-05-07T08:37:26;18.10;99.90
21823;DHT22;11074;48.596;9.238;2023-05-07T08:39:51;18.10;99.90
21823;DHT22;11074;48.596;9.238;2023-05-07T08:42:17;18.20;99.90
21823;DHT22;11074;48.596;9.238;2023-05-07T08:44:45;18.30;99.90
21823;DHT22;11074;48.596;9.238;2023-05-07T08:47:12;18.40;99.90
21823;DHT22;11074;48.596;9.238;2023-05-07T08:49:38;18.60;99.90
21823;DHT22;11074;48.596;9.238;2023-05-07T08:52:04;18.80;99.90
21823;DHT22;11074;48.596;9.238;2023-05-07T08:54:31;18.70;99.90
21823;DHT22;11074;48.596;9.238;2023-05-07T08:56:57;18.80;99.90
21823;DHT22;11074;48.596;9.238;2023-05-07T08:59:23;18.80;99.90
21823;DHT22;11074;48.596;9.238;2023-05-07T09:01:49;18.80;99.90
21823;DHT22;11074;48.596;9.238;2023-05-07T09:04:14;18.80;99.90
21823;DHT22;11074;48.596;9.238;2023-05-07T09:06:40;18.80;99.90
21823;DHT22;11074;48.596;9.238;2023-05-07T09:09:07;18.80;99.90
21823;DHT22;11074;48.596;9.238;2023-05-07T09:11:33;18.90;99.90
21823;DHT22;11074;48.596;9.238;2023-05-07T09:13:59;18.90;99.90
21823;DHT22;11074;48.596;9.238;2023-05-07T09:16:30;18.90;99.90
21823;DHT22;11074;48.596;9.238;2023-05-07T09:18:57;19.00;99.90
21823;DHT22;11074;48.596;9.238;2023-05-07T09:21:25;19.10;99.90
21823;DHT22;11074;48.596;9.238;2023-05-07T09:23:55;19.30;99.90
21823;DHT22;11074;48.596;9.238;2023-05-07T09:26:22;19.40;99.90
21823;DHT22;11074;48.596;9.238;2023-05-07T09:28:48;19.60;99.90
21823;DHT22;11074;48.596;9.238;2023-05-07T09:31:14;19.70;99.90
21823;DHT22;11074;48.596;9.238;2023-05-07T09:33:40;19.70;99.90
21823;DHT22;11074;48.596;9.238;2023-05-07T09:36:07;19.80;99.90
21823;DHT22;11074;48.596;9.238;2023-05-07T09:38:36;19.90;99.90
21823;DHT22;11074;48.596;9.238;2023-05-07T09:41:08;19.90;99.90
21823;DHT22;11074;48.596;9.238;2023-05-07T09:43:37;20.00;99.90
21823;DHT22;11074;48.596;9.238;2023-05-07T09:46:08;20.00;99.90
21823;DHT22;11074;48.596;9.238;2023-05-07T09:48:41;19.90;99.90
21823;DHT22;11074;48.596;9.238;2023-05-07T09:53:53;20.10;99.90
21823;DHT22;11074;48.596;9.238;2023-05-07T09:56:19;20.20;99.90
21823;DHT22;11074;48.596;9.238;2023-05-07T09:58:46;20.20;99.90
21823;DHT22;11074;48.596;9.238;2023-05-07T10:01:13;20.30;99.90
21823;DHT22;11074;48.596;9.238;2023-05-07T10:03:41;20.40;99.90
21823;DHT22;11074;48.596;9.238;2023-05-07T10:06:09;20.50;99.90
21823;DHT22;11074;48.596;9.238;2023-05-07T10:08:36;20.60;99.90
21823;DHT22;11074;48.596;9.238;2023-05-07T10:11:04;20.70;99.90
21823;DHT22;11074;48.596;9.238;2023-05-07T10:13:34;20.90;99.90
21823;DHT22;11074;48.596;9.238;2023-05-07T10:16:04;21.00;99.90
21823;DHT22;11074;48.596;9.238;2023-05-07T10:18:31;21.10;99.90
21823;DHT22;11074;48.596;9.238;2023-05-07T10:21:08;21.20;99.90
21823;DHT22;11074;48.596;9.238;2023-05-07T10:23:38;21.30;99.90
21823;DHT22;11074;48.596;9.238;2023-05-07T10:26:07;21.40;99.90
21823;DHT22;11074;48.596;9.238;2023-05-07T10:28:38;21.40;99.90
21823;DHT22;11074;48.596;9.238;2023-05-07T10:34:08;21.40;99.90
21823;DHT22;11074;48.596;9.238;2023-05-07T10:36:38;21.50;99.90
21823;DHT22;11074;48.596;9.238;2023-05-07T10:39:05;21.60;99.90
21823;DHT22;11074;48.596;9.238;2023-05-07T10:41:31;21.80;99.90
21823;DHT22;11074;48.596;9.238;2023-05-07T10:43:57;21.90;99.90
21823;DHT22;11074;48.596;9.238;2023-05-07T10:46:26;22.00;99.90
21823;DHT22;11074;48.596;9.238;2023-05-07T10:51:32;22.20;99.90
21823;DHT22;11074;48.596;9.238;2023-05-07T10:54:18;22.30;99.90
21823;DHT22;11074;48.596;9.238;2023-05-07T10:56:46;22.40;99.90
21823;DHT22;11074;48.596;9.238;2023-05-07T11:02:05;22.60;99.90
21823;DHT22;11074;48.596;9.238;2023-05-07T11:04:33;22.80;99.90
21823;DHT22;11074;48.596;9.238;2023-05-07T11:09:57;23.00;99.90
21823;DHT22;11074;48.596;9.238;2023-05-07T11:15:11;23.30;99.90
21823;DHT22;11074;48.596;9.238;2023-05-07T11:17:58;23.50;99.90
21823;DHT22;11074;48.596;9.238;2023-05-07T11:20:54;23.60;99.90
21823;DHT22;11074;48.596;9.238;2023-05-07T11:26:03;24.00;99.90
21823;DHT22;11074;48.596;9.238;2023-05-07T11:28:31;24.30;99.90
21823;DHT22;11074;48.596;9.238;2023-05-07T11:31:02;24.50;99.90
21823;DHT22;11074;48.596;9.238;2023-05-07T11:33:29;24.80;99.90
21823;DHT22;11074;48.596;9.238;2023-05-07T11:35:56;24.90;99.90
21823;DHT22;11074;48.596;9.238;2023-05-07T11:38:22;25.00;99.90
21823;DHT22;11074;48.596;9.238;2023-05-07T11:40:57;25.00;99.90
21823;DHT22;11074;48.596;9.238;2023-05-07T11:43:26;25.10;99.90
21823;DHT22;11074;48.596;9.238;2023-05-07T11:45:52;25.20;99.90
21823;DHT22;11074;48.596;9.238;2023-05-07T11:48:18;25.30;99.90
21823;DHT22;11074;48.596;9.238;2023-05-07T11:50:59;25.30;99.90
21823;DHT22;11074;48.596;9.238;2023-05-07T11:53:36;25.20;99.90
21823;DHT22;11074;48.596;9.238;2023-05-07T11:56:14;25.10;99.90
21823;DHT22;11074;48.596;9.238;2023-05-07T11:58:42;24.90;99.90
21823;DHT22;11074;48.596;9.238;2023-05-07T12:01:10;24.70;99.90
21823;DHT22;11074;48.596;9.238;2023-05-07T12:03:40;24.50;99.90
21823;DHT22;11074;48.596;9.238;2023-05-07T12:06:08;24.20;99.90
21823;DHT22;11074;48.596;9.238;2023-05-07T12:08:37;23.90;99.90
21823;DHT22;11074;48.596;9.238;2023-05-07T12:11:07;23.50;99.90
21823;DHT22;11074;48.596;9.238;2023-05-07T12:13:35;23.20;99.90
21823;DHT22;11074;48.596;9.238;2023-05-07T12:16:01;22.90;99.90
21823;DHT22;11074;48.596;9.238;2023-05-07T12:18:30;22.80;99.90
21823;DHT22;11074;48.596;9.238;2023-05-07T12:20:56;22.60;99.90
21823;DHT22;11074;48.596;9.238;2023-05-07T12:23:22;22.40;99.90
21823;DHT22;11074;48.596;9.238;2023-05-07T12:25:49;22.30;99.90
21823;DHT22;11074;48.596;9.238;2023-05-07T12:28:16;22.10;99.90
21823;DHT22;11074;48.596;9.238;2023-05-07T12:30:44;22.00;99.90
21823;DHT22;11074;48.596;9.238;2023-05-07T12:33:11;21.80;99.90
21823;DHT22;11074;48.596;9.238;2023-05-07T12:35:41;21.60;99.90
21823;DHT22;11074;48.596;9.238;2023-05-07T12:38:17;21.40;99.90
21823;DHT22;11074;48.596;9.238;2023-05-07T12:40:45;21.10;99.90
21823;DHT22;11074;48.596;9.238;2023-05-07T12:43:25;21.00;99.90
21823;DHT22;11074;48.596;9.238;2023-05-07T12:45:55;20.90;99.90
21823;DHT22;11074;48.596;9.238;2023-05-07T12:48:31;20.80;99.90
21823;DHT22;11074;48.596;9.238;2023-05-07T12:50:58;20.70;99.90
21823;DHT22;11074;48.596;9.238;2023-05-07T12:53:26;20.60;99.90
21823;DHT22;11074;48.596;9.238;2023-05-07T12:55:56;20.50;99.90
21823;DHT22;11074;48.596;9.238;2023-05-07T12:58:30;20.30;99.90
21823;DHT22;11074;48.596;9.238;2023-05-07T13:01:01;20.20;99.90
21823;DHT22;11074;48.596;9.238;2023-05-07T13:03:32;20.00;99.90
21823;DHT22;11074;48.596;9.238;2023-05-07T13:06:04;20.00;99.90
21823;DHT22;11074;48.596;9.238;2023-05-07T13:08:41;19.90;99.90
21823;DHT22;11074;48.596;9.238;2023-05-07T13:11:11;19.80;99.90
21823;DHT22;11074;48.596;9.238;2023-05-07T13:13:40;19.60;99.90
21823;DHT22;11074;48.596;9.238;2023-05-07T13:16:08;19.50;99.90
21823;DHT22;11074;48.596;9.238;2023-05-07T13:18:35;19.40;99.90
21823;DHT22;11074;48.596;9.238;2023-05-07T13:21:02;19.30;99.90
21823;DHT22;11074;48.596;9.238;2023-05-07T13:23:28;19.30;99.90
21823;DHT22;11074;48.596;9.238;2023-05-07T13:25:54;19.20;99.90
21823;DHT22;11074;48.596;9.238;2023-05-07T13:28:21;19.10;99.90
21823;DHT22;11074;48.596;9.238;2023-05-07T13:30:47;18.90;99.90
21823;DHT22;11074;48.596;9.238;2023-05-07T13:33:13;18.80;99.90
21823;DHT22;11074;48.596;9.238;2023-05-07T13:35:40;18.80;99.90
21823;DHT22;11074;48.596;9.238;2023-05-07T13:38:06;18.50;99.90
21823;DHT22;11074;48.596;9.238;2023-05-07T13:40:32;18.40;99.90
21823;DHT22;11074;48.596;9.238;2023-05-07T13:42:58;18.10;99.90
21823;DHT22;11074;48.596;9.238;2023-05-07T13:45:27;17.90;99.90
21823;DHT22;11074;48.596;9.238;2023-05-07T13:47:55;17.80;99.90
21823;DHT22;11074;48.596;9.238;2023-05-07T13:50:22;17.70;99.90
21823;DHT22;11074;48.596;9.238;2023-05-07T13:52:48;17.60;99.90
21823;DHT22;11074;48.596;9.238;2023-05-07T13:55:20;17.60;99.90
21823;DHT22;11074;48.596;9.238;2023-05-07T13:57:57;17.50;99.90
21823;DHT22;11074;48.596;9.238;2023-05-07T14:00:25;17.40;99.90
21823;DHT22;11074;48.596;9.238;2023-05-07T14:02:52;17.30;99.90
21823;DHT22;11074;48.596;9.238;2023-05-07T14:05:18;17.10;99.90
21823;DHT22;11074;48.596;9.238;2023-05-07T14:07:44;16.90;99.90
21823;DHT22;11074;48.596;9.238;2023-05-07T14:10:10;16.80;99.90
21823;DHT22;11074;48.596;9.238;2023-05-07T14:12:36;16.70;99.90
21823;DHT22;11074;48.596;9.238;2023-05-07T14:15:03;16.80;99.90
21823;DHT22;11074;48.596;9.238;2023-05-07T14:17:29;16.80;99.90
21823;DHT22;11074;48.596;9.238;2023-05-07T14:19:55;16.90;99.90
21823;DHT22;11074;48.596;9.238;2023-05-07T14:22:22;16.90;99.90
21823;DHT22;11074;48.596;9.238;2023-05-07T14:24:49;16.90;99.90
21823;DHT22;11074;48.596;9.238;2023-05-07T14:27:15;17.00;99.90
21823;DHT22;11074;48.596;9.238;2023-05-07T14:29:41;16.90;99.90
21823;DHT22;11074;48.596;9.238;2023-05-07T14:32:08;16.80;99.90
21823;DHT22;11074;48.596;9.238;2023-05-07T14:34:34;16.80;99.90
21823;DHT22;11074;48.596;9.238;2023-05-07T14:37:00;16.80;99.90
21823;DHT22;11074;48.596;9.238;2023-05-07T14:39:26;16.80;99.90
21823;DHT22;11074;48.596;9.238;2023-05-07T14:41:52;16.80;99.90
21823;DHT22;11074;48.596;9.238;2023-05-07T14:44:20;16.80;99.90
21823;DHT22;11074;48.596;9.238;2023-05-07T14:46:46;16.90;99.90
21823;DHT22;11074;48.596;9.238;2023-05-07T14:49:11;16.90;99.90
21823;DHT22;11074;48.596;9.238;2023-05-07T14:51:45;16.90;99.90
21823;DHT22;11074;48.596;9.238;2023-05-07T14:54:13;16.90;99.90
21823;DHT22;11074;48.596;9.238;2023-05-07T14:56:40;17.00;99.90
21823;DHT22;11074;48.596;9.238;2023-05-07T14:59:07;17.00;99.90
21823;DHT22;11074;48.596;9.238;2023-05-07T15:01:35;17.00;99.90
21823;DHT22;11074;48.596;9.238;2023-05-07T15:04:03;17.10;99.90
21823;DHT22;11074;48.596;9.238;2023-05-07T15:06:29;17.10;99.90
21823;DHT22;11074;48.596;9.238;2023-05-07T15:08:55;17.00;99.90
21823;DHT22;11074;48.596;9.238;2023-05-07T15:11:20;17.00;99.90
21823;DHT22;11074;48.596;9.238;2023-05-07T15:13:46;17.10;99.90
21823;DHT22;11074;48.596;9.238;2023-05-07T15:16:12;17.10;99.90
21823;DHT22;11074;48.596;9.238;2023-05-07T15:18:38;17.10;99.90
21823;DHT22;11074;48.596;9.238;2023-05-07T15:21:04;17.20;99.90
21823;DHT22;11074;48.596;9.238;2023-05-07T15:23:30;17.20;99.90
21823;DHT22;11074;48.596;9.238;2023-05-07T15:25:56;17.30;99.90
21823;DHT22;11074;48.596;9.238;2023-05-07T15:28:22;17.30;99.90
21823;DHT22;11074;48.596;9.238;2023-05-07T15:30:47;17.30;99.90
21823;DHT22;11074;48.596;9.238;2023-05-07T15:33:13;17.40;99.90
21823;DHT22;11074;48.596;9.238;2023-05-07T15:35:39;17.40;99.90
21823;DHT22;11074;48.596;9.238;2023-05-07T15:38:05;17.40;99.90
21823;DHT22;11074;48.596;9.238;2023-05-07T15:40:31;17.40;99.90
21823;DHT22;11074;48.596;9.238;2023-05-07T15:42:56;17.40;99.90
21823;DHT22;11074;48.596;9.238;2023-05-07T15:45:23;17.40;99.90
21823;DHT22;11074;48.596;9.238;2023-05-07T15:47:49;17.40;99.90
21823;DHT22;11074;48.596;9.238;2023-05-07T15:50:15;17.30;99.90
21823;DHT22;11074;48.596;9.238;2023-05-07T15:52:40;17.40;99.90